sensor_id;sensor_type;location;lat;lon;timestamp;P1;durP1;ratioP1;P2;durP2;ratioP2
52512;SDS011;38422;53.172;6.974;2023-05-07T00:02:06;15.27;;;13.00;;
52512;SDS011;38422;53.172;6.974;2023-05-07T00:04:32;16.98;;;13.05;;
52512;SDS011;38422;53.172;6.974;2023-05-07T00:07:02;15.77;;;12.60;;
52512;SDS011;38422;53.172;6.974;2023-05-07T00:09:28;16.63;;;13.27;;
52512;SDS011;38422;53.172;6.974;2023-05-07T00:11:54;15.68;;;13.40;;
52512;SDS011;38422;53.172;6.974;2023-05-07T00:14:19;14.55;;;13.00;;
52512;SDS011;38422;53.172;6.974;2023-05-07T00:16:46;15.05;;;13.32;;
52512;SDS011;38422;53.172;6.974;2023-05-07T00:19:11;15.30;;;13.43;;
52512;SDS011;38422;53.172;6.974;2023-05-07T00:21:37;14.93;;;13.07;;
52512;SDS011;38422;53.172;6.974;2023-05-07T00:24:03;19.05;;;14.80;;
52512;SDS011;38422;53.172;6.974;2023-05-07T00:26:29;16.27;;;13.15;;
52512;SDS011;38422;53.172;6.974;2023-05-07T00:28:55;17.50;;;14.10;;
52512;SDS011;38422;53.172;6.974;2023-05-07T00:31:20;16.92;;;14.30;;
52512;SDS011;38422;53.172;6.974;2023-05-07T00:33:46;17.58;;;13.90;;
52512;SDS011;38422;53.172;6.974;2023-05-07T00:36:12;17.05;;;14.82;;
52512;SDS011;38422;53.172;6.974;2023-05-07T00:38:37;15.80;;;14.15;;
52512;SDS011;38422;53.172;6.974;2023-05-07T00:41:03;16.90;;;14.90;;
52512;SDS011;38422;53.172;6.974;2023-05-07T00:43:29;17.30;;;15.02;;
52512;SDS011;38422;53.172;6.974;2023-05-07T00:45:54;17.80;;;14.45;;
52512;SDS011;38422;53.172;6.974;2023-05-07T00:48:20;18.17;;;15.73;;
52512;SDS011;38422;53.172;6.974;2023-05-07T00:50:46;17.45;;;15.60;;
52512;SDS011;38422;53.172;6.974;2023-05-07T00:53:13;18.43;;;16.37;;
52512;SDS011;38422;53.172;6.974;2023-05-07T00:55:39;18.80;;;16.75;;
52512;SDS011;38422;53.172;6.974;2023-05-07T00:58:05;18.67;;;16.75;;
52512;SDS011;38422;53.172;6.974;2023-05-07T01:00:31;19.70;;;17.55;;
52512;SDS011;38422;53.172;6.974;2023-05-07T01:02:57;20.00;;;18.00;;
52512;SDS011;38422;53.172;6.974;2023-05-07T01:05:24;21.23;;;17.90;;
52512;SDS011;38422;53.172;6.974;2023-05-07T01:07:51;20.40;;;18.15;;
52512;SDS011;38422;53.172;6.974;2023-05-07T01:10:20;20.73;;;18.52;;
52512;SDS011;38422;53.172;6.974;2023-05-07T01:12:46;21.13;;;18.73;;
52512;SDS011;38422;53.172;6.974;2023-05-07T01:17:39;22.83;;;19.52;;
52512;SDS011;38422;53.172;6.974;2023-05-07T01:20:06;22.35;;;19.15;;
52512;SDS011;38422;53.172;6.974;2023-05-07T01:22:33;24.17;;;20.13;;
52512;SDS011;38422;53.172;6.974;2023-05-07T01:24:59;24.43;;;21.10;;
52512;SDS011;38422;53.172;6.974;2023-05-07T01:27:26;25.42;;;21.48;;
52512;SDS011;38422;53.172;6.974;2023-05-07T01:29:52;23.77;;;21.00;;
52512;SDS011;38422;53.172;6.974;2023-05-07T01:32:23;25.17;;;20.42;;
52512;SDS011;38422;53.172;6.974;2023-05-07T01:34:54;23.67;;;20.20;;
52512;SDS011;38422;53.172;6.974;2023-05-07T01:37:20;23.48;;;19.45;;
52512;SDS011;38422;53.172;6.974;2023-05-07T01:39:47;22.75;;;19.75;;
52512;SDS011;38422;53.172;6.974;2023-05-07T01:42:13;25.30;;;19.27;;
52512;SDS011;38422;53.172;6.974;2023-05-07T01:44:39;21.88;;;19.38;;
52512;SDS011;38422;53.172;6.974;2023-05-07T01:47:05;22.25;;;18.58;;
52512;SDS011;38422;53.172;6.974;2023-05-07T01:49:31;21.73;;;17.52;;
52512;SDS011;38422;53.172;6.974;2023-05-07T01:51:57;22.40;;;17.55;;
52512;SDS011;38422;53.172;6.974;2023-05-07T01:54:27;23.00;;;17.25;;
52512;SDS011;38422;53.172;6.974;2023-05-07T01:56:53;21.85;;;16.92;;
52512;SDS011;38422;53.172;6.974;2023-05-07T02:01:45;19.08;;;15.35;;
52512;SDS011;38422;53.172;6.974;2023-05-07T02:04:12;18.63;;;16.33;;
52512;SDS011;38422;53.172;6.974;2023-05-07T02:06:38;20.75;;;16.90;;
52512;SDS011;38422;53.172;6.974;2023-05-07T02:09:04;20.23;;;16.38;;
52512;SDS011;38422;53.172;6.974;2023-05-07T02:11:29;19.75;;;16.70;;
52512;SDS011;38422;53.172;6.974;2023-05-07T02:13:55;21.20;;;16.60;;
52512;SDS011;38422;53.172;6.974;2023-05-07T02:16:21;21.40;;;17.95;;
52512;SDS011;38422;53.172;6.974;2023-05-07T02:18:48;22.38;;;17.75;;
52512;SDS011;38422;53.172;6.974;2023-05-07T02:21:13;21.20;;;18.45;;
52512;SDS011;38422;53.172;6.974;2023-05-07T02:23:39;23.00;;;18.38;;
52512;SDS011;38422;53.172;6.974;2023-05-07T02:26:05;22.55;;;18.08;;
52512;SDS011;38422;53.172;6.974;2023-05-07T02:28:31;21.70;;;16.30;;
52512;SDS011;38422;53.172;6.974;2023-05-07T02:30:56;23.38;;;16.98;;
52512;SDS011;38422;53.172;6.974;2023-05-07T02:33:24;21.83;;;15.90;;
52512;SDS011;38422;53.172;6.974;2023-05-07T02:35:50;18.83;;;16.13;;
52512;SDS011;38422;53.172;6.974;2023-05-07T02:38:17;19.67;;;16.17;;
52512;SDS011;38422;53.172;6.974;2023-05-07T02:40:43;19.92;;;16.17;;
52512;SDS011;38422;53.172;6.974;2023-05-07T02:43:09;20.80;;;17.13;;
52512;SDS011;38422;53.172;6.974;2023-05-07T02:45:34;19.50;;;16.63;;
52512;SDS011;38422;53.172;6.974;2023-05-07T02:48:02;19.13;;;16.73;;
52512;SDS011;38422;53.172;6.974;2023-05-07T02:50:28;19.67;;;16.35;;
52512;SDS011;38422;53.172;6.974;2023-05-07T02:52:54;23.58;;;18.17;;
52512;SDS011;38422;53.172;6.974;2023-05-07T02:55:20;22.77;;;18.40;;
52512;SDS011;38422;53.172;6.974;2023-05-07T02:57:46;24.48;;;19.55;;
52512;SDS011;38422;53.172;6.974;2023-05-07T03:00:12;24.25;;;20.73;;
52512;SDS011;38422;53.172;6.974;2023-05-07T03:02:39;26.02;;;21.42;;
52512;SDS011;38422;53.172;6.974;2023-05-07T03:05:05;25.35;;;21.02;;
52512;SDS011;38422;53.172;6.974;2023-05-07T03:07:31;27.02;;;20.60;;
52512;SDS011;38422;53.172;6.974;2023-05-07T03:09:57;25.92;;;20.75;;
52512;SDS011;38422;53.172;6.974;2023-05-07T03:12:23;21.17;;;17.65;;
52512;SDS011;38422;53.172;6.974;2023-05-07T03:14:48;21.77;;;17.48;;
52512;SDS011;38422;53.172;6.974;2023-05-07T03:17:14;21.83;;;18.15;;
52512;SDS011;38422;53.172;6.974;2023-05-07T03:19:41;20.05;;;16.98;;
52512;SDS011;38422;53.172;6.974;2023-05-07T03:22:06;20.00;;;16.58;;
52512;SDS011;38422;53.172;6.974;2023-05-07T03:24:32;20.15;;;16.35;;
52512;SDS011;38422;53.172;6.974;2023-05-07T03:26:58;19.25;;;16.60;;
52512;SDS011;38422;53.172;6.974;2023-05-07T03:29:23;20.27;;;16.40;;
52512;SDS011;38422;53.172;6.974;2023-05-07T03:31:49;18.77;;;16.45;;
52512;SDS011;38422;53.172;6.974;2023-05-07T03:34:15;20.60;;;16.02;;
52512;SDS011;38422;53.172;6.974;2023-05-07T03:36:42;19.17;;;16.30;;
52512;SDS011;38422;53.172;6.974;2023-05-07T03:39:07;19.77;;;16.73;;
52512;SDS011;38422;53.172;6.974;2023-05-07T03:41:33;20.25;;;16.55;;
52512;SDS011;38422;53.172;6.974;2023-05-07T03:43:59;20.08;;;15.70;;
52512;SDS011;38422;53.172;6.974;2023-05-07T03:46:25;19.75;;;15.35;;
52512;SDS011;38422;53.172;6.974;2023-05-07T03:48:51;19.05;;;15.88;;
52512;SDS011;38422;53.172;6.974;2023-05-07T03:51:17;18.35;;;15.38;;
52512;SDS011;38422;53.172;6.974;2023-05-07T03:53:43;17.40;;;15.13;;
52512;SDS011;38422;53.172;6.974;2023-05-07T03:56:08;17.38;;;15.40;;
52512;SDS011;38422;53.172;6.974;2023-05-07T03:58:34;17.92;;;14.45;;
52512;SDS011;38422;53.172;6.974;2023-05-07T04:01:00;17.70;;;15.80;;
52512;SDS011;38422;53.172;6.974;2023-05-07T04:03:26;17.23;;;15.02;;
52512;SDS011;38422;53.172;6.974;2023-05-07T04:05:51;18.67;;;14.98;;
52512;SDS011;38422;53.172;6.974;2023-05-07T04:08:17;18.88;;;15.20;;
52512;SDS011;38422;53.172;6.974;2023-05-07T04:10:43;20.05;;;15.88;;
52512;SDS011;38422;53.172;6.974;2023-05-07T04:13:08;22.08;;;16.90;;
52512;SDS011;38422;53.172;6.974;2023-05-07T04:15:35;20.98;;;17.27;;
52512;SDS011;38422;53.172;6.974;2023-05-07T04:18:01;22.55;;;18.88;;
52512;SDS011;38422;53.172;6.974;2023-05-07T04:20:27;24.65;;;20.95;;
52512;SDS011;38422;53.172;6.974;2023-05-07T04:22:52;25.00;;;22.20;;
52512;SDS011;38422;53.172;6.974;2023-05-07T04:25:18;29.77;;;24.70;;
52512;SDS011;38422;53.172;6.974;2023-05-07T04:27:44;30.02;;;25.92;;
52512;SDS011;38422;53.172;6.974;2023-05-07T04:30:10;28.80;;;24.55;;
52512;SDS011;38422;53.172;6.974;2023-05-07T04:32:36;25.57;;;22.20;;
52512;SDS011;38422;53.172;6.974;2023-05-07T04:35:02;23.13;;;20.40;;
52512;SDS011;38422;53.172;6.974;2023-05-07T04:37:28;23.50;;;20.27;;
52512;SDS011;38422;53.172;6.974;2023-05-07T04:39:54;23.75;;;20.88;;
52512;SDS011;38422;53.172;6.974;2023-05-07T04:42:19;27.88;;;23.08;;
52512;SDS011;38422;53.172;6.974;2023-05-07T04:44:45;26.48;;;23.67;;
52512;SDS011;38422;53.172;6.974;2023-05-07T04:47:11;32.05;;;28.02;;
52512;SDS011;38422;53.172;6.974;2023-05-07T04:49:40;32.45;;;28.63;;
52512;SDS011;38422;53.172;6.974;2023-05-07T04:52:06;32.60;;;29.10;;
52512;SDS011;38422;53.172;6.974;2023-05-07T04:54:31;33.10;;;29.60;;
52512;SDS011;38422;53.172;6.974;2023-05-07T04:56:57;34.00;;;28.92;;
52512;SDS011;38422;53.172;6.974;2023-05-07T04:59:23;33.72;;;28.15;;
52512;SDS011;38422;53.172;6.974;2023-05-07T05:01:48;30.30;;;27.00;;
52512;SDS011;38422;53.172;6.974;2023-05-07T05:04:14;29.27;;;24.38;;
52512;SDS011;38422;53.172;6.974;2023-05-07T05:06:40;25.20;;;22.55;;
52512;SDS011;38422;53.172;6.974;2023-05-07T05:09:06;28.08;;;25.08;;
52512;SDS011;38422;53.172;6.974;2023-05-07T05:11:32;30.23;;;26.95;;
52512;SDS011;38422;53.172;6.974;2023-05-07T05:13:59;30.00;;;26.67;;
52512;SDS011;38422;53.172;6.974;2023-05-07T05:18:51;28.27;;;23.65;;
52512;SDS011;38422;53.172;6.974;2023-05-07T05:21:17;27.83;;;24.05;;
52512;SDS011;38422;53.172;6.974;2023-05-07T05:23:43;26.13;;;23.10;;
52512;SDS011;38422;53.172;6.974;2023-05-07T05:26:08;24.10;;;21.48;;
52512;SDS011;38422;53.172;6.974;2023-05-07T05:28:34;25.20;;;22.48;;
52512;SDS011;38422;53.172;6.974;2023-05-07T05:31:00;27.50;;;22.42;;
52512;SDS011;38422;53.172;6.974;2023-05-07T05:33:26;28.40;;;22.63;;
52512;SDS011;38422;53.172;6.974;2023-05-07T05:35:51;24.00;;;21.48;;
52512;SDS011;38422;53.172;6.974;2023-05-07T05:38:18;25.23;;;21.27;;
52512;SDS011;38422;53.172;6.974;2023-05-07T05:40:44;22.65;;;19.02;;
52512;SDS011;38422;53.172;6.974;2023-05-07T05:43:09;21.52;;;18.63;;
52512;SDS011;38422;53.172;6.974;2023-05-07T05:45:35;21.08;;;17.48;;
52512;SDS011;38422;53.172;6.974;2023-05-07T05:48:01;18.77;;;16.73;;
52512;SDS011;38422;53.172;6.974;2023-05-07T05:50:26;17.73;;;15.65;;
52512;SDS011;38422;53.172;6.974;2023-05-07T05:52:52;18.25;;;15.77;;
52512;SDS011;38422;53.172;6.974;2023-05-07T05:55:18;17.33;;;14.25;;
52512;SDS011;38422;53.172;6.974;2023-05-07T05:57:44;17.30;;;14.57;;
52512;SDS011;38422;53.172;6.974;2023-05-07T06:00:10;16.42;;;13.40;;
52512;SDS011;38422;53.172;6.974;2023-05-07T06:02:36;16.23;;;13.90;;
52512;SDS011;38422;53.172;6.974;2023-05-07T06:05:02;15.85;;;12.75;;
52512;SDS011;38422;53.172;6.974;2023-05-07T06:07:29;17.73;;;13.90;;
52512;SDS011;38422;53.172;6.974;2023-05-07T06:09:54;16.25;;;14.55;;
52512;SDS011;38422;53.172;6.974;2023-05-07T06:12:20;15.75;;;14.00;;
52512;SDS011;38422;53.172;6.974;2023-05-07T06:14:46;17.10;;;13.82;;
52512;SDS011;38422;53.172;6.974;2023-05-07T06:17:12;15.05;;;12.77;;
52512;SDS011;38422;53.172;6.974;2023-05-07T06:19:38;15.85;;;13.88;;
52512;SDS011;38422;53.172;6.974;2023-05-07T06:22:03;16.15;;;13.80;;
52512;SDS011;38422;53.172;6.974;2023-05-07T06:24:29;17.30;;;14.80;;
52512;SDS011;38422;53.172;6.974;2023-05-07T06:26:55;17.00;;;14.65;;
52512;SDS011;38422;53.172;6.974;2023-05-07T06:29:20;16.85;;;14.95;;
52512;SDS011;38422;53.172;6.974;2023-05-07T06:31:46;18.80;;;15.77;;
52512;SDS011;38422;53.172;6.974;2023-05-07T06:34:12;20.13;;;16.13;;
52512;SDS011;38422;53.172;6.974;2023-05-07T06:36:40;19.70;;;16.30;;
52512;SDS011;38422;53.172;6.974;2023-05-07T06:39:06;17.88;;;15.30;;
52512;SDS011;38422;53.172;6.974;2023-05-07T06:41:32;17.42;;;15.23;;
52512;SDS011;38422;53.172;6.974;2023-05-07T06:43:57;16.00;;;13.77;;
52512;SDS011;38422;53.172;6.974;2023-05-07T06:46:23;18.27;;;15.65;;
52512;SDS011;38422;53.172;6.974;2023-05-07T06:48:49;17.35;;;15.00;;
52512;SDS011;38422;53.172;6.974;2023-05-07T06:51:14;18.88;;;16.30;;
52512;SDS011;38422;53.172;6.974;2023-05-07T06:53:40;18.23;;;16.25;;
52512;SDS011;38422;53.172;6.974;2023-05-07T06:56:06;19.90;;;17.08;;
52512;SDS011;38422;53.172;6.974;2023-05-07T06:58:32;20.00;;;17.42;;
52512;SDS011;38422;53.172;6.974;2023-05-07T07:00:57;20.80;;;18.58;;
52512;SDS011;38422;53.172;6.974;2023-05-07T07:03:23;20.77;;;18.38;;
52512;SDS011;38422;53.172;6.974;2023-05-07T07:05:53;19.85;;;17.75;;
52512;SDS011;38422;53.172;6.974;2023-05-07T07:08:19;18.55;;;16.13;;
52512;SDS011;38422;53.172;6.974;2023-05-07T07:10:46;17.95;;;15.98;;
52512;SDS011;38422;53.172;6.974;2023-05-07T07:13:12;19.13;;;14.85;;
52512;SDS011;38422;53.172;6.974;2023-05-07T07:15:38;16.05;;;14.23;;
52512;SDS011;38422;53.172;6.974;2023-05-07T07:18:05;16.53;;;13.90;;
52512;SDS011;38422;53.172;6.974;2023-05-07T07:20:31;17.05;;;14.32;;
52512;SDS011;38422;53.172;6.974;2023-05-07T07:22:57;17.27;;;14.20;;
52512;SDS011;38422;53.172;6.974;2023-05-07T07:25:23;18.05;;;14.82;;
52512;SDS011;38422;53.172;6.974;2023-05-07T07:27:49;18.10;;;14.13;;
52512;SDS011;38422;53.172;6.974;2023-05-07T07:30:15;16.05;;;13.68;;
52512;SDS011;38422;53.172;6.974;2023-05-07T07:32:40;18.80;;;13.90;;
52512;SDS011;38422;53.172;6.974;2023-05-07T07:35:06;15.57;;;13.43;;
52512;SDS011;38422;53.172;6.974;2023-05-07T07:37:32;16.98;;;13.70;;
52512;SDS011;38422;53.172;6.974;2023-05-07T07:39:58;16.50;;;14.23;;
52512;SDS011;38422;53.172;6.974;2023-05-07T07:42:24;17.70;;;14.25;;
52512;SDS011;38422;53.172;6.974;2023-05-07T07:44:50;16.02;;;14.25;;
52512;SDS011;38422;53.172;6.974;2023-05-07T07:47:16;16.55;;;13.60;;
52512;SDS011;38422;53.172;6.974;2023-05-07T07:49:41;17.45;;;14.20;;
52512;SDS011;38422;53.172;6.974;2023-05-07T07:52:07;16.77;;;14.65;;
52512;SDS011;38422;53.172;6.974;2023-05-07T07:54:33;16.55;;;13.77;;
52512;SDS011;38422;53.172;6.974;2023-05-07T07:56:58;17.42;;;13.98;;
52512;SDS011;38422;53.172;6.974;2023-05-07T07:59:24;18.23;;;13.85;;
52512;SDS011;38422;53.172;6.974;2023-05-07T08:01:50;17.13;;;13.57;;
52512;SDS011;38422;53.172;6.974;2023-05-07T08:04:17;16.08;;;13.98;;
52512;SDS011;38422;53.172;6.974;2023-05-07T08:06:43;16.95;;;14.10;;
52512;SDS011;38422;53.172;6.974;2023-05-07T08:09:09;17.83;;;13.48;;
52512;SDS011;38422;53.172;6.974;2023-05-07T08:11:34;16.35;;;13.70;;
52512;SDS011;38422;53.172;6.974;2023-05-07T08:14:03;15.77;;;13.85;;
52512;SDS011;38422;53.172;6.974;2023-05-07T08:16:28;16.75;;;14.27;;
52512;SDS011;38422;53.172;6.974;2023-05-07T08:18:54;17.00;;;13.35;;
52512;SDS011;38422;53.172;6.974;2023-05-07T08:21:20;15.70;;;13.50;;
52512;SDS011;38422;53.172;6.974;2023-05-07T08:23:46;16.50;;;13.48;;
52512;SDS011;38422;53.172;6.974;2023-05-07T08:26:11;16.50;;;12.90;;
52512;SDS011;38422;53.172;6.974;2023-05-07T08:28:37;16.13;;;13.45;;
52512;SDS011;38422;53.172;6.974;2023-05-07T08:31:03;15.45;;;13.10;;
52512;SDS011;38422;53.172;6.974;2023-05-07T08:33:29;15.30;;;12.65;;
52512;SDS011;38422;53.172;6.974;2023-05-07T08:35:54;14.88;;;12.63;;
52512;SDS011;38422;53.172;6.974;2023-05-07T08:38:20;14.40;;;11.88;;
52512;SDS011;38422;53.172;6.974;2023-05-07T08:40:46;14.73;;;12.63;;
52512;SDS011;38422;53.172;6.974;2023-05-07T08:43:12;14.32;;;12.27;;
52512;SDS011;38422;53.172;6.974;2023-05-07T08:45:39;14.75;;;12.55;;
52512;SDS011;38422;53.172;6.974;2023-05-07T08:48:08;14.65;;;12.38;;
52512;SDS011;38422;53.172;6.974;2023-05-07T08:50:39;14.70;;;11.70;;
52512;SDS011;38422;53.172;6.974;2023-05-07T08:53:05;13.10;;;11.70;;
52512;SDS011;38422;53.172;6.974;2023-05-07T08:55:30;13.52;;;12.07;;
52512;SDS011;38422;53.172;6.974;2023-05-07T08:57:58;14.35;;;12.13;;
52512;SDS011;38422;53.172;6.974;2023-05-07T09:00:24;15.15;;;12.50;;
52512;SDS011;38422;53.172;6.974;2023-05-07T09:02:50;14.95;;;11.52;;
52512;SDS011;38422;53.172;6.974;2023-05-07T09:05:18;12.52;;;11.23;;
52512;SDS011;38422;53.172;6.974;2023-05-07T09:07:44;13.07;;;11.43;;
52512;SDS011;38422;53.172;6.974;2023-05-07T09:10:11;12.90;;;11.40;;
52512;SDS011;38422;53.172;6.974;2023-05-07T09:12:37;13.27;;;11.55;;
52512;SDS011;38422;53.172;6.974;2023-05-07T09:15:04;13.88;;;11.43;;
52512;SDS011;38422;53.172;6.974;2023-05-07T09:17:30;12.38;;;11.05;;
52512;SDS011;38422;53.172;6.974;2023-05-07T09:19:56;12.98;;;10.68;;
52512;SDS011;38422;53.172;6.974;2023-05-07T09:22:36;12.20;;;10.90;;
52512;SDS011;38422;53.172;6.974;2023-05-07T09:25:02;12.43;;;10.77;;
52512;SDS011;38422;53.172;6.974;2023-05-07T09:27:28;13.75;;;10.90;;
52512;SDS011;38422;53.172;6.974;2023-05-07T09:29:55;12.13;;;10.60;;
52512;SDS011;38422;53.172;6.974;2023-05-07T09:32:21;11.52;;;9.93;;
52512;SDS011;38422;53.172;6.974;2023-05-07T09:34:46;11.90;;;9.80;;
52512;SDS011;38422;53.172;6.974;2023-05-07T09:37:13;12.98;;;10.68;;
52512;SDS011;38422;53.172;6.974;2023-05-07T09:39:40;12.27;;;10.23;;
52512;SDS011;38422;53.172;6.974;2023-05-07T09:42:07;13.20;;;9.70;;
52512;SDS011;38422;53.172;6.974;2023-05-07T09:44:34;11.25;;;9.77;;
52512;SDS011;38422;53.172;6.974;2023-05-07T09:47:06;10.90;;;9.23;;
52512;SDS011;38422;53.172;6.974;2023-05-07T09:49:36;12.38;;;9.73;;
52512;SDS011;38422;53.172;6.974;2023-05-07T09:52:06;10.65;;;9.55;;
52512;SDS011;38422;53.172;6.974;2023-05-07T09:54:34;10.00;;;8.88;;
52512;SDS011;38422;53.172;6.974;2023-05-07T09:57:03;10.15;;;9.10;;
52512;SDS011;38422;53.172;6.974;2023-05-07T09:59:31;10.05;;;9.00;;
52512;SDS011;38422;53.172;6.974;2023-05-07T10:01:58;10.60;;;9.50;;
52512;SDS011;38422;53.172;6.974;2023-05-07T10:06:51;9.77;;;8.77;;
52512;SDS011;38422;53.172;6.974;2023-05-07T10:09:18;9.35;;;8.35;;
52512;SDS011;38422;53.172;6.974;2023-05-07T10:11:45;9.27;;;8.30;;
52512;SDS011;38422;53.172;6.974;2023-05-07T10:14:13;9.63;;;8.63;;
52512;SDS011;38422;53.172;6.974;2023-05-07T10:16:39;9.38;;;8.45;;
52512;SDS011;38422;53.172;6.974;2023-05-07T10:19:07;9.40;;;8.48;;
52512;SDS011;38422;53.172;6.974;2023-05-07T10:21:38;9.55;;;8.55;;
52512;SDS011;38422;53.172;6.974;2023-05-07T10:24:10;10.23;;;8.65;;
52512;SDS011;38422;53.172;6.974;2023-05-07T10:26:42;9.23;;;8.27;;
52512;SDS011;38422;53.172;6.974;2023-05-07T10:31:59;8.60;;;7.70;;
52512;SDS011;38422;53.172;6.974;2023-05-07T10:34:45;8.65;;;7.75;;
52512;SDS011;38422;53.172;6.974;2023-05-07T10:37:13;9.13;;;8.07;;
52512;SDS011;38422;53.172;6.974;2023-05-07T10:39:40;8.93;;;8.02;;
52512;SDS011;38422;53.172;6.974;2023-05-07T10:42:13;8.27;;;7.47;;
52512;SDS011;38422;53.172;6.974;2023-05-07T10:44:41;8.73;;;7.82;;
52512;SDS011;38422;53.172;6.974;2023-05-07T10:47:08;8.88;;;7.97;;
52512;SDS011;38422;53.172;6.974;2023-05-07T10:54:40;9.13;;;7.63;;
52512;SDS011;38422;53.172;6.974;2023-05-07T10:59:56;8.00;;;6.82;;
52512;SDS011;38422;53.172;6.974;2023-05-07T11:02:22;8.02;;;7.22;;
52512;SDS011;38422;53.172;6.974;2023-05-07T11:07:53;8.55;;;7.45;;
52512;SDS011;38422;53.172;6.974;2023-05-07T11:10:23;7.90;;;7.10;;
52512;SDS011;38422;53.172;6.974;2023-05-07T11:13:09;8.27;;;7.40;;
52512;SDS011;38422;53.172;6.974;2023-05-07T11:15:36;7.85;;;7.05;;
52512;SDS011;38422;53.172;6.974;2023-05-07T11:18:03;8.93;;;7.63;;
52512;SDS011;38422;53.172;6.974;2023-05-07T11:26:04;7.82;;;7.03;;
52512;SDS011;38422;53.172;6.974;2023-05-07T11:28:37;8.00;;;7.25;;
52512;SDS011;38422;53.172;6.974;2023-05-07T11:31:07;8.45;;;7.55;;
52512;SDS011;38422;53.172;6.974;2023-05-07T11:40:07;9.45;;;8.55;;
52512;SDS011;38422;53.172;6.974;2023-05-07T11:42:38;9.43;;;8.52;;
52512;SDS011;38422;53.172;6.974;2023-05-07T11:45:06;8.50;;;7.70;;
52512;SDS011;38422;53.172;6.974;2023-05-07T11:47:32;8.25;;;7.45;;
52512;SDS011;38422;53.172;6.974;2023-05-07T11:50:05;8.45;;;7.65;;
52512;SDS011;38422;53.172;6.974;2023-05-07T11:52:32;7.97;;;7.18;;
52512;SDS011;38422;53.172;6.974;2023-05-07T11:54:59;7.93;;;7.22;;
52512;SDS011;38422;53.172;6.974;2023-05-07T11:57:26;9.45;;;7.70;;
52512;SDS011;38422;53.172;6.974;2023-05-07T11:59:58;10.52;;;8.25;;
52512;SDS011;38422;53.172;6.974;2023-05-07T12:02:27;8.32;;;7.20;;
52512;SDS011;38422;53.172;6.974;2023-05-07T12:04:53;22.67;;;11.00;;
52512;SDS011;38422;53.172;6.974;2023-05-07T12:07:20;8.10;;;7.30;;
52512;SDS011;38422;53.172;6.974;2023-05-07T12:09:46;7.95;;;7.10;;
52512;SDS011;38422;53.172;6.974;2023-05-07T12:16:17;7.38;;;6.68;;
52512;SDS011;38422;53.172;6.974;2023-05-07T12:25:09;7.40;;;6.50;;
52512;SDS011;38422;53.172;6.974;2023-05-07T12:27:36;7.55;;;6.80;;
52512;SDS011;38422;53.172;6.974;2023-05-07T12:30:03;8.68;;;6.50;;
52512;SDS011;38422;53.172;6.974;2023-05-07T12:32:29;7.00;;;6.30;;
52512;SDS011;38422;53.172;6.974;2023-05-07T12:34:54;7.00;;;6.30;;
52512;SDS011;38422;53.172;6.974;2023-05-07T12:37:26;14.43;;;7.43;;
52512;SDS011;38422;53.172;6.974;2023-05-07T12:40:08;6.28;;;5.68;;
52512;SDS011;38422;53.172;6.974;2023-05-07T12:42:36;6.65;;;5.78;;
52512;SDS011;38422;53.172;6.974;2023-05-07T12:45:09;6.28;;;5.68;;
52512;SDS011;38422;53.172;6.974;2023-05-07T12:47:35;5.90;;;5.30;;
52512;SDS011;38422;53.172;6.974;2023-05-07T12:50:01;6.90;;;5.65;;
52512;SDS011;38422;53.172;6.974;2023-05-07T12:52:27;5.63;;;5.13;;
52512;SDS011;38422;53.172;6.974;2023-05-07T12:54:53;5.88;;;4.95;;
52512;SDS011;38422;53.172;6.974;2023-05-07T12:57:19;6.57;;;4.75;;
52512;SDS011;38422;53.172;6.974;2023-05-07T12:59:45;5.53;;;5.03;;
52512;SDS011;38422;53.172;6.974;2023-05-07T13:02:12;5.85;;;5.35;;
52512;SDS011;38422;53.172;6.974;2023-05-07T13:04:37;5.70;;;5.20;;
52512;SDS011;38422;53.172;6.974;2023-05-07T13:07:03;5.50;;;5.00;;
52512;SDS011;38422;53.172;6.974;2023-05-07T13:09:29;5.35;;;4.85;;
52512;SDS011;38422;53.172;6.974;2023-05-07T13:14:25;5.25;;;4.75;;
52512;SDS011;38422;53.172;6.974;2023-05-07T13:16:50;5.47;;;4.38;;
52512;SDS011;38422;53.172;6.974;2023-05-07T13:19:16;5.17;;;4.67;;
52512;SDS011;38422;53.172;6.974;2023-05-07T13:21:42;4.30;;;3.90;;
52512;SDS011;38422;53.172;6.974;2023-05-07T13:24:08;4.55;;;4.15;;
52512;SDS011;38422;53.172;6.974;2023-05-07T13:26:34;4.93;;;4.53;;
52512;SDS011;38422;53.172;6.974;2023-05-07T13:29:00;6.88;;;4.35;;
52512;SDS011;38422;53.172;6.974;2023-05-07T13:31:26;5.43;;;4.33;;
52512;SDS011;38422;53.172;6.974;2023-05-07T13:33:51;5.57;;;4.57;;
52512;SDS011;38422;53.172;6.974;2023-05-07T13:36:17;4.67;;;4.27;;
52512;SDS011;38422;53.172;6.974;2023-05-07T13:38:43;4.53;;;4.13;;
52512;SDS011;38422;53.172;6.974;2023-05-07T13:41:09;5.27;;;4.40;;
52512;SDS011;38422;53.172;6.974;2023-05-07T13:43:34;5.13;;;4.57;;
52512;SDS011;38422;53.172;6.974;2023-05-07T13:46:00;4.97;;;4.47;;
52512;SDS011;38422;53.172;6.974;2023-05-07T13:48:26;4.90;;;4.40;;
52512;SDS011;38422;53.172;6.974;2023-05-07T13:50:53;4.53;;;4.10;;
52512;SDS011;38422;53.172;6.974;2023-05-07T13:53:19;4.67;;;4.17;;
52512;SDS011;38422;53.172;6.974;2023-05-07T13:55:45;8.67;;;4.67;;
52512;SDS011;38422;53.172;6.974;2023-05-07T13:58:10;4.77;;;4.27;;
52512;SDS011;38422;53.172;6.974;2023-05-07T14:00:36;4.97;;;4.00;;
52512;SDS011;38422;53.172;6.974;2023-05-07T14:03:03;5.22;;;3.80;;
52512;SDS011;38422;53.172;6.974;2023-05-07T14:05:29;4.32;;;3.85;;
52512;SDS011;38422;53.172;6.974;2023-05-07T14:07:56;5.07;;;3.70;;
52512;SDS011;38422;53.172;6.974;2023-05-07T14:10:23;5.88;;;4.10;;
52512;SDS011;38422;53.172;6.974;2023-05-07T14:12:49;5.47;;;4.37;;
52512;SDS011;38422;53.172;6.974;2023-05-07T14:15:14;5.03;;;4.20;;
52512;SDS011;38422;53.172;6.974;2023-05-07T14:17:41;4.43;;;4.03;;
52512;SDS011;38422;53.172;6.974;2023-05-07T14:20:12;4.68;;;4.28;;
52512;SDS011;38422;53.172;6.974;2023-05-07T14:22:38;4.47;;;4.00;;
52512;SDS011;38422;53.172;6.974;2023-05-07T14:25:04;4.90;;;4.40;;
52512;SDS011;38422;53.172;6.974;2023-05-07T14:27:30;5.03;;;4.53;;
52512;SDS011;38422;53.172;6.974;2023-05-07T14:29:55;6.07;;;4.50;;
52512;SDS011;38422;53.172;6.974;2023-05-07T14:32:21;4.80;;;3.97;;
52512;SDS011;38422;53.172;6.974;2023-05-07T14:34:47;4.70;;;4.30;;
52512;SDS011;38422;53.172;6.974;2023-05-07T14:37:12;4.73;;;4.33;;
52512;SDS011;38422;53.172;6.974;2023-05-07T14:39:38;4.83;;;4.33;;
52512;SDS011;38422;53.172;6.974;2023-05-07T14:42:04;4.20;;;3.80;;
52512;SDS011;38422;53.172;6.974;2023-05-07T14:44:32;4.40;;;4.00;;
52512;SDS011;38422;53.172;6.974;2023-05-07T14:47:01;4.82;;;4.35;;
52512;SDS011;38422;53.172;6.974;2023-05-07T14:49:27;7.07;;;4.70;;
52512;SDS011;38422;53.172;6.974;2023-05-07T14:51:53;6.10;;;4.23;;
52512;SDS011;38422;53.172;6.974;2023-05-07T14:54:19;6.50;;;4.60;;
52512;SDS011;38422;53.172;6.974;2023-05-07T14:56:44;5.07;;;4.57;;
52512;SDS011;38422;53.172;6.974;2023-05-07T14:59:10;5.03;;;4.63;;
52512;SDS011;38422;53.172;6.974;2023-05-07T15:01:36;5.30;;;4.10;;
52512;SDS011;38422;53.172;6.974;2023-05-07T15:04:03;5.22;;;4.60;;
52512;SDS011;38422;53.172;6.974;2023-05-07T15:06:29;6.85;;;5.07;;
52512;SDS011;38422;53.172;6.974;2023-05-07T15:08:56;5.78;;;4.97;;
52512;SDS011;38422;53.172;6.974;2023-05-07T15:11:21;5.37;;;4.50;;
52512;SDS011;38422;53.172;6.974;2023-05-07T15:13:47;6.07;;;5.27;;
52512;SDS011;38422;53.172;6.974;2023-05-07T15:16:14;6.05;;;4.80;;